createdAt,value
2018-11-02T00:01:25.197Z,7.95
2018-11-02T00:03:53.718Z,8.01
2018-11-02T00:06:22.130Z,7.96
2018-11-02T00:08:50.275Z,7.99
2018-11-02T00:11:19.484Z,7.94
2018-11-02T00:13:47.765Z,8.10
2018-11-02T00:16:15.948Z,8.06
2018-11-02T00:18:44.101Z,8.06
2018-11-02T00:21:12.257Z,7.99
2018-11-02T00:23:40.499Z,7.91
2018-11-02T00:26:08.684Z,7.92
2018-11-02T00:28:36.792Z,7.88
2018-11-02T00:31:05.206Z,7.94
2018-11-02T00:33:33.371Z,7.84
2018-11-02T00:36:01.502Z,7.79
2018-11-02T00:38:29.640Z,7.82
2018-11-02T00:40:57.789Z,7.69
2018-11-02T00:43:25.896Z,7.71
2018-11-02T00:45:54.058Z,7.77
2018-11-02T00:48:22.238Z,7.64
2018-11-02T00:50:50.529Z,7.71
2018-11-02T00:53:18.689Z,7.57
2018-11-02T00:55:46.934Z,7.57
2018-11-02T00:58:15.205Z,7.50
2018-11-02T01:00:43.348Z,7.48
2018-11-02T01:03:11.544Z,7.48
2018-11-02T01:05:40.197Z,7.36
2018-11-02T01:08:08.358Z,7.46
2018-11-02T01:10:36.615Z,7.49
2018-11-02T01:13:04.804Z,7.44
2018-11-02T01:15:32.975Z,7.51
2018-11-02T01:18:01.125Z,7.58
2018-11-02T01:20:29.277Z,7.64
2018-11-02T01:22:57.389Z,7.52
2018-11-02T01:25:25.544Z,7.60
2018-11-02T01:27:53.697Z,7.56
2018-11-02T01:30:21.843Z,7.49
2018-11-02T01:32:49.971Z,7.48
2018-11-02T01:35:18.067Z,7.47
2018-11-02T01:37:46.229Z,7.52
2018-11-02T01:40:14.399Z,7.62
2018-11-02T01:42:42.544Z,7.58
2018-11-02T01:45:10.670Z,7.56
2018-11-02T01:47:38.873Z,7.35
2018-11-02T01:50:07.294Z,7.31
2018-11-02T01:52:35.438Z,7.43
2018-11-02T01:55:03.600Z,7.30
2018-11-02T01:57:31.743Z,7.28
2018-11-02T01:59:59.902Z,7.25
2018-11-02T02:02:28.063Z,7.22
2018-11-02T02:04:56.257Z,7.24
2018-11-02T02:07:24.416Z,7.20
2018-11-02T02:09:52.546Z,7.15
2018-11-02T02:12:20.695Z,7.16
2018-11-02T02:14:48.804Z,7.18
2018-11-02T02:17:17.039Z,7.08
2018-11-02T02:19:45.235Z,7.05
2018-11-02T02:22:13.362Z,7.18
2018-11-02T02:24:41.527Z,7.11
2018-11-02T02:27:09.703Z,7.10
2018-11-02T02:29:37.842Z,7.01
2018-11-02T02:32:06.009Z,7.04
2018-11-02T02:34:34.166Z,7.03
2018-11-02T02:37:02.425Z,7.04
2018-11-02T02:39:30.593Z,7.07
2018-11-02T02:41:58.744Z,7.05
2018-11-02T02:44:26.895Z,7.11
2018-11-02T02:46:55.083Z,7.09
2018-11-02T02:49:23.221Z,7.14
2018-11-02T02:51:51.600Z,7.10
2018-11-02T02:54:19.758Z,7.03
2018-11-02T02:56:54.777Z,7.05
2018-11-02T02:59:22.881Z,7.15
2018-11-02T03:01:51.003Z,7.05
2018-11-02T03:04:19.213Z,7.04
2018-11-02T03:06:47.469Z,7.03
2018-11-02T03:09:15.663Z,6.87
2018-11-02T03:11:43.790Z,6.90
2018-11-02T03:14:12.009Z,6.89
2018-11-02T03:16:40.159Z,6.87
2018-11-02T03:19:08.297Z,7.01
2018-11-02T03:21:36.432Z,6.89
2018-11-02T03:24:04.567Z,6.95
2018-11-02T03:26:32.731Z,6.87
2018-11-02T03:29:00.871Z,6.97
2018-11-02T03:31:29.025Z,6.95
2018-11-02T03:33:57.181Z,6.91
2018-11-02T03:36:25.361Z,6.82
2018-11-02T03:38:53.529Z,6.94
2018-11-02T03:41:21.644Z,6.91
2018-11-02T03:43:50.007Z,6.87
2018-11-02T03:46:18.220Z,6.87
2018-11-02T03:48:46.391Z,6.87
2018-11-02T03:51:14.469Z,6.77
2018-11-02T03:53:42.570Z,6.92
2018-11-02T03:56:10.713Z,6.81
2018-11-02T03:58:38.900Z,6.72
2018-11-02T04:01:07.229Z,6.74
2018-11-02T04:03:35.377Z,6.68
2018-11-02T04:06:03.480Z,6.72
2018-11-02T04:08:31.683Z,6.85
2018-11-02T04:10:59.776Z,6.79
2018-11-02T04:13:27.983Z,6.82
2018-11-02T04:15:56.084Z,6.86
2018-11-02T04:18:24.200Z,6.90
2018-11-02T04:20:52.304Z,6.88
2018-11-02T04:23:20.473Z,6.75
2018-11-02T04:25:48.669Z,6.78
2018-11-02T04:28:19.767Z,6.89
2018-11-02T04:30:47.933Z,6.84
2018-11-02T04:33:16.021Z,6.83
2018-11-02T04:35:44.144Z,6.81
2018-11-02T04:38:12.496Z,6.84
2018-11-02T04:40:40.625Z,6.97
2018-11-02T04:43:08.768Z,6.98
2018-11-02T04:45:39.906Z,6.95
2018-11-02T04:48:09.781Z,7.03
2018-11-02T04:50:38.204Z,7.09
2018-11-02T04:53:06.539Z,7.08
2018-11-02T04:55:34.867Z,6.92
2018-11-02T04:58:02.992Z,6.85
2018-11-02T05:00:31.504Z,6.85
2018-11-02T05:06:13.828Z,6.81
2018-11-02T05:08:42.272Z,6.95
2018-11-02T05:11:10.416Z,7.08
2018-11-02T05:13:38.484Z,7.03
2018-11-02T05:16:06.956Z,7.06
2018-11-02T05:18:35.219Z,6.98
2018-11-02T05:21:03.416Z,6.90
2018-11-02T05:23:31.479Z,6.80
2018-11-02T05:25:59.768Z,6.73
2018-11-02T05:28:27.897Z,6.70
2018-11-02T05:30:56.014Z,6.80
2018-11-02T05:33:24.316Z,6.84
2018-11-02T05:35:52.428Z,6.89
2018-11-02T05:38:20.561Z,6.89
2018-11-02T05:40:48.720Z,6.84
2018-11-02T05:43:16.872Z,6.86
2018-11-02T05:45:44.988Z,6.91
2018-11-02T05:48:13.284Z,6.95
2018-11-02T05:50:41.374Z,7.00
2018-11-02T05:53:09.562Z,6.97
2018-11-02T05:55:37.712Z,6.88
2018-11-02T05:58:05.868Z,6.94
2018-11-02T06:00:34.030Z,6.91
2018-11-02T06:03:02.148Z,6.85
2018-11-02T06:05:30.402Z,6.97
2018-11-02T06:07:58.674Z,6.92
2018-11-02T06:10:26.784Z,6.80
2018-11-02T06:12:54.920Z,6.84
2018-11-02T06:15:23.052Z,6.77
2018-11-02T06:17:51.181Z,6.76
2018-11-02T06:20:19.310Z,6.76
2018-11-02T06:22:47.484Z,6.65
2018-11-02T06:25:15.629Z,6.75
2018-11-02T06:27:43.793Z,6.82
2018-11-02T06:30:11.938Z,6.88
2018-11-02T06:32:40.169Z,6.84
2018-11-02T06:35:08.712Z,6.91
2018-11-02T06:37:36.859Z,6.93
2018-11-02T06:40:05.108Z,6.91
2018-11-02T06:42:33.344Z,6.87
2018-11-02T06:45:01.663Z,6.77
2018-11-02T06:47:29.789Z,6.79
2018-11-02T06:49:57.934Z,6.85
2018-11-02T06:52:26.113Z,7.00
2018-11-02T06:54:54.596Z,6.98
2018-11-02T06:57:22.722Z,7.18
2018-11-02T06:59:51.001Z,7.18
2018-11-02T07:02:19.003Z,7.20
2018-11-02T07:04:47.130Z,7.30
2018-11-02T07:07:15.429Z,7.26
2018-11-02T07:09:43.437Z,7.32
2018-11-02T07:12:11.643Z,7.52
2018-11-02T07:14:39.800Z,7.76
2018-11-02T07:17:07.969Z,7.65
2018-11-02T07:19:36.178Z,7.72
2018-11-02T07:22:04.428Z,7.72
2018-11-02T07:24:32.565Z,7.82
2018-11-02T07:27:00.691Z,7.82
2018-11-02T07:29:28.797Z,7.85
2018-11-02T07:31:56.953Z,7.77
2018-11-02T07:34:25.099Z,7.70
2018-11-02T07:36:53.252Z,7.89
2018-11-02T07:39:21.398Z,7.95
2018-11-02T07:41:49.496Z,7.88
2018-11-02T07:44:17.696Z,7.90
2018-11-02T07:46:45.860Z,8.06
2018-11-02T07:49:14.043Z,8.09
2018-11-02T07:51:42.147Z,8.21
2018-11-02T07:54:10.314Z,8.12
2018-11-02T07:56:38.495Z,8.26
2018-11-02T07:59:06.667Z,8.41
2018-11-02T08:01:34.932Z,8.45
2018-11-02T08:04:03.046Z,8.48
2018-11-02T08:06:31.130Z,8.45
2018-11-02T08:08:59.284Z,8.43
2018-11-02T08:11:27.471Z,8.49
2018-11-02T08:13:55.578Z,8.68
2018-11-02T08:16:23.690Z,8.68
2018-11-02T08:18:51.859Z,8.83
2018-11-02T08:21:19.953Z,8.88
2018-11-02T08:23:48.064Z,9.00
2018-11-02T08:26:19.181Z,9.13
2018-11-02T08:28:47.289Z,9.13
2018-11-02T08:31:15.425Z,9.25
2018-11-02T08:33:43.595Z,9.41
2018-11-02T08:36:11.752Z,9.41
2018-11-02T08:38:39.902Z,9.46
2018-11-02T08:41:08.058Z,9.61
2018-11-02T08:43:36.204Z,9.58
2018-11-02T08:46:04.411Z,9.57
2018-11-02T08:48:32.504Z,9.61
2018-11-02T08:51:00.614Z,9.58
2018-11-02T08:53:28.829Z,9.62
2018-11-02T08:55:56.966Z,9.71
2018-11-02T08:58:25.372Z,9.73
2018-11-02T09:00:53.472Z,9.82
2018-11-02T09:03:21.596Z,9.92
2018-11-02T09:05:49.745Z,10.11
2018-11-02T09:08:17.880Z,10.25
2018-11-02T09:10:46.054Z,10.36
2018-11-02T09:13:14.368Z,10.54
2018-11-02T09:15:42.599Z,10.74
2018-11-02T09:18:10.724Z,10.92
2018-11-02T09:20:38.933Z,11.04
2018-11-02T09:23:07.059Z,11.26
2018-11-02T09:25:38.309Z,11.34
2018-11-02T09:28:06.591Z,11.44
2018-11-02T09:30:34.634Z,11.49
2018-11-02T09:33:02.774Z,11.48
2018-11-02T09:35:30.898Z,11.53
2018-11-02T09:37:59.043Z,11.55
2018-11-02T09:40:27.237Z,11.59
2018-11-02T09:42:55.318Z,11.70
2018-11-02T09:45:23.424Z,11.75
2018-11-02T09:47:51.618Z,11.73
2018-11-02T09:50:19.745Z,11.76
2018-11-02T09:52:47.912Z,11.73
2018-11-02T09:55:16.660Z,11.81
2018-11-02T09:57:46.127Z,11.91
2018-11-02T10:00:14.814Z,12.07
2018-11-02T10:02:43.167Z,12.12
2018-11-02T10:05:12.352Z,12.21
2018-11-02T10:07:41.710Z,12.25
2018-11-02T10:10:11.312Z,12.34
2018-11-02T10:12:39.538Z,12.40
2018-11-02T10:15:10.374Z,12.46
2018-11-02T10:17:38.528Z,12.51
2018-11-02T10:20:07.304Z,12.45
2018-11-02T10:22:35.509Z,12.48
2018-11-02T10:25:03.813Z,12.52
2018-11-02T10:27:32.012Z,12.54
2018-11-02T10:30:00.212Z,12.53
2018-11-02T10:32:28.328Z,12.41
2018-11-02T10:34:56.455Z,12.40
2018-11-02T10:37:24.579Z,12.36
2018-11-02T10:39:52.797Z,12.36
2018-11-02T10:42:20.974Z,12.33
2018-11-02T10:44:49.251Z,12.30
2018-11-02T10:47:17.431Z,12.24
2018-11-02T10:49:45.622Z,12.20
2018-11-02T10:52:13.785Z,12.19
2018-11-02T10:54:41.962Z,12.20
2018-11-02T10:57:10.110Z,12.23
2018-11-02T10:59:38.241Z,12.18
2018-11-02T11:02:08.510Z,12.18
2018-11-02T11:04:37.487Z,12.19
2018-11-02T11:07:06.185Z,12.13
2018-11-02T11:09:34.362Z,12.10
2018-11-02T11:12:02.576Z,12.12
2018-11-02T11:14:31.101Z,12.10
2018-11-02T11:16:59.302Z,12.05
2018-11-02T11:19:27.551Z,12.05
2018-11-02T11:21:55.770Z,12.07
2018-11-02T11:24:23.934Z,11.99
2018-11-02T11:26:52.088Z,12.03
2018-11-02T11:29:20.387Z,12.11
2018-11-02T11:31:48.445Z,12.10
2018-11-02T11:34:16.633Z,12.21
2018-11-02T11:36:44.816Z,12.25
2018-11-02T11:39:14.008Z,12.30
2018-11-02T11:41:42.184Z,12.33
2018-11-02T11:44:10.883Z,12.41
2018-11-02T11:46:39.172Z,12.57
2018-11-02T11:49:08.313Z,12.53
2018-11-02T11:51:36.437Z,12.58
2018-11-02T11:54:04.700Z,12.74
2018-11-02T11:56:32.998Z,12.91
2018-11-02T11:59:01.367Z,12.96
2018-11-02T12:01:29.508Z,12.92
2018-11-02T12:03:57.735Z,12.81
2018-11-02T12:06:25.992Z,12.77
2018-11-02T12:08:54.174Z,12.73
2018-11-02T12:11:22.326Z,12.82
2018-11-02T12:13:50.504Z,12.84
2018-11-02T12:16:18.685Z,12.94
2018-11-02T12:18:53.687Z,12.95
2018-11-02T12:21:21.886Z,12.91
2018-11-02T12:23:50.077Z,12.85
2018-11-02T12:26:18.249Z,12.82
2018-11-02T12:28:46.515Z,12.87
2018-11-02T12:31:14.629Z,12.91
2018-11-02T12:33:42.770Z,12.91
2018-11-02T12:36:10.943Z,12.94
2018-11-02T12:38:39.166Z,12.92
2018-11-02T12:41:07.299Z,13.05
2018-11-02T12:43:35.646Z,13.01
2018-11-02T12:46:03.720Z,12.98
2018-11-02T12:48:31.985Z,13.08
2018-11-02T12:51:00.074Z,13.18
2018-11-02T12:53:28.252Z,13.21
2018-11-02T12:55:56.492Z,13.22
2018-11-02T12:58:24.724Z,13.20
2018-11-02T13:00:52.891Z,13.12
2018-11-02T13:03:21.063Z,13.17
2018-11-02T13:05:49.219Z,13.31
2018-11-02T13:08:17.413Z,13.46
2018-11-02T13:10:45.589Z,13.51
2018-11-02T13:13:13.750Z,13.70
2018-11-02T13:15:42.008Z,13.63
2018-11-02T13:18:10.120Z,13.54
2018-11-02T13:20:38.301Z,13.47
2018-11-02T13:23:06.486Z,13.46
2018-11-02T13:25:34.637Z,13.46
2018-11-02T13:28:02.851Z,13.43
2018-11-02T13:30:31.144Z,13.37
2018-11-02T13:32:59.233Z,13.33
2018-11-02T13:35:27.373Z,13.30
2018-11-02T13:37:55.546Z,13.26
2018-11-02T13:40:23.720Z,13.39
2018-11-02T13:42:51.882Z,13.39
2018-11-02T13:45:20.261Z,13.53
2018-11-02T13:47:48.525Z,13.58
2018-11-02T13:50:16.822Z,13.73
2018-11-02T13:52:45.275Z,13.80
2018-11-02T13:55:13.869Z,13.84
2018-11-02T13:57:42.098Z,13.96
2018-11-02T14:00:12.362Z,14.00
2018-11-02T14:02:40.520Z,13.82
2018-11-02T14:05:09.875Z,13.78
2018-11-02T14:07:38.029Z,13.58
2018-11-02T14:10:06.806Z,13.43
2018-11-02T14:12:34.984Z,13.34
2018-11-02T14:15:03.219Z,13.19
2018-11-02T14:17:31.378Z,13.06
2018-11-02T14:19:59.550Z,13.07
2018-11-02T14:22:27.755Z,13.01
2018-11-02T14:24:55.989Z,12.92
2018-11-02T14:27:24.204Z,12.84
2018-11-02T14:29:52.417Z,12.83
2018-11-02T14:32:20.663Z,12.74
2018-11-02T14:34:48.803Z,12.86
2018-11-02T14:37:17.021Z,12.82
2018-11-02T14:39:45.208Z,12.78
2018-11-02T14:42:13.437Z,12.75
2018-11-02T14:44:41.665Z,12.69
2018-11-02T14:47:09.829Z,12.70
2018-11-02T14:49:38.091Z,12.71
2018-11-02T14:52:06.431Z,12.72
2018-11-02T14:54:34.619Z,12.67
2018-11-02T14:57:02.862Z,12.68
2018-11-02T14:59:31.175Z,12.57
2018-11-02T15:01:59.384Z,12.44
2018-11-02T15:04:27.520Z,12.52
2018-11-02T15:06:55.781Z,12.43
2018-11-02T15:09:24.035Z,12.43
2018-11-02T15:11:52.201Z,12.23
2018-11-02T15:14:20.364Z,12.23
2018-11-02T15:16:48.536Z,11.99
2018-11-02T15:19:16.721Z,11.94
2018-11-02T15:21:51.299Z,12.13
2018-11-02T15:24:19.491Z,12.11
2018-11-02T15:26:47.631Z,11.84
2018-11-02T15:29:15.840Z,11.77
2018-11-02T15:31:43.985Z,12.09
2018-11-02T15:34:12.169Z,12.01
2018-11-02T15:36:40.452Z,12.14
2018-11-02T15:39:10.582Z,11.99
2018-11-02T15:41:38.875Z,11.95
2018-11-02T15:44:07.196Z,11.73
2018-11-02T15:46:35.643Z,11.69
2018-11-02T15:49:03.840Z,11.63
2018-11-02T15:51:31.999Z,11.63
2018-11-02T15:54:00.278Z,11.50
2018-11-02T15:56:28.518Z,11.42
2018-11-02T15:58:56.789Z,11.28
2018-11-02T16:01:25.230Z,11.10
2018-11-02T16:03:53.474Z,11.24
2018-11-02T16:06:21.648Z,11.42
2018-11-02T16:08:49.916Z,11.52
2018-11-02T16:11:18.136Z,11.48
2018-11-02T16:13:46.576Z,11.47
2018-11-02T16:16:14.713Z,11.48
2018-11-02T16:18:43.090Z,11.39
2018-11-02T16:21:11.335Z,11.44
2018-11-02T16:23:39.501Z,11.36
2018-11-02T16:26:08.065Z,11.19
2018-11-02T16:28:36.248Z,11.02
2018-11-02T16:31:04.571Z,11.02
2018-11-02T16:33:32.769Z,11.00
2018-11-02T16:36:00.924Z,11.02
2018-11-02T16:38:29.185Z,11.00
2018-11-02T16:40:57.355Z,10.96
2018-11-02T16:43:25.656Z,10.92
2018-11-02T16:45:53.885Z,10.95
2018-11-02T16:48:22.035Z,10.82
2018-11-02T16:50:50.180Z,10.63
2018-11-02T16:53:18.434Z,10.86
2018-11-02T16:55:46.705Z,10.89
2018-11-02T16:58:14.979Z,10.89
2018-11-02T17:00:43.127Z,10.69
2018-11-02T17:03:11.258Z,10.78
2018-11-02T17:05:39.492Z,10.79
2018-11-02T17:08:07.740Z,10.66
2018-11-02T17:10:36.011Z,10.55
2018-11-02T17:13:04.475Z,10.56
2018-11-02T17:15:32.729Z,10.49
2018-11-02T17:18:00.965Z,10.52
2018-11-02T17:20:29.197Z,10.61
2018-11-02T17:22:57.419Z,10.55
2018-11-02T17:25:25.654Z,10.32
2018-11-02T17:27:53.874Z,10.31
2018-11-02T17:30:22.053Z,10.23
2018-11-02T17:32:50.640Z,10.27
2018-11-02T17:35:18.883Z,10.22
2018-11-02T17:37:47.081Z,10.05
2018-11-02T17:40:15.912Z,10.09
2018-11-02T17:42:44.653Z,10.07
2018-11-02T17:45:12.929Z,10.04
2018-11-02T17:47:42.104Z,9.83
2018-11-02T17:50:11.454Z,9.78
2018-11-02T17:52:39.691Z,9.67
2018-11-02T17:55:07.951Z,9.92
2018-11-02T17:57:36.123Z,10.00
2018-11-02T18:00:04.824Z,9.83
2018-11-02T18:02:35.582Z,9.63
2018-11-02T18:05:03.848Z,9.93
2018-11-02T18:07:32.077Z,9.93
2018-11-02T18:10:01.290Z,9.99
2018-11-02T18:12:29.493Z,10.02
2018-11-02T18:14:57.767Z,9.97
2018-11-02T18:17:25.930Z,10.00
2018-11-02T18:19:54.129Z,9.93
2018-11-02T18:22:22.394Z,9.97
2018-11-02T18:24:50.557Z,9.94
2018-11-02T18:27:18.738Z,9.88
2018-11-02T18:29:46.951Z,9.76
2018-11-02T18:32:15.184Z,9.96
2018-11-02T18:34:43.536Z,10.10
2018-11-02T18:37:11.747Z,10.09
2018-11-02T18:39:40.032Z,10.18
2018-11-02T18:42:08.493Z,10.12
2018-11-02T18:44:36.662Z,10.18
2018-11-02T18:47:06.308Z,10.27
2018-11-02T18:49:34.741Z,10.11
2018-11-02T18:52:03.376Z,10.11
2018-11-02T18:54:32.015Z,10.08
2018-11-02T18:57:00.360Z,9.93
2018-11-02T18:59:28.617Z,9.74
2018-11-02T19:01:57.304Z,9.67
2018-11-02T19:04:25.716Z,9.77
2018-11-02T19:06:54.160Z,9.71
2018-11-02T19:09:22.428Z,9.51
2018-11-02T19:11:54.975Z,9.57
2018-11-02T19:14:23.353Z,9.71
2018-11-02T19:16:51.971Z,9.62
2018-11-02T19:19:20.376Z,9.68
2018-11-02T19:21:48.996Z,9.44
2018-11-02T19:24:17.224Z,9.42
2018-11-02T19:26:45.727Z,9.39
2018-11-02T19:29:14.232Z,9.37
2018-11-02T19:31:42.655Z,9.51
2018-11-02T19:34:15.346Z,9.52
2018-11-02T19:36:43.541Z,9.57
2018-11-02T19:39:12.064Z,9.46
2018-11-02T19:41:40.383Z,9.40
2018-11-02T19:44:08.591Z,9.56
2018-11-02T19:46:36.898Z,9.54
2018-11-02T19:49:05.459Z,9.50
2018-11-02T19:51:34.315Z,9.65
2018-11-02T19:54:02.655Z,9.77
2018-11-02T19:56:30.944Z,9.86
2018-11-02T19:58:59.211Z,9.94
2018-11-02T20:01:27.482Z,9.63
2018-11-02T20:03:55.965Z,9.82
2018-11-02T20:06:24.256Z,9.82
2018-11-02T20:08:52.572Z,9.76
2018-11-02T20:11:20.816Z,9.74
2018-11-02T20:13:49.415Z,9.80
2018-11-02T20:16:17.660Z,9.84
2018-11-02T20:18:45.881Z,9.87
2018-11-02T20:21:14.109Z,9.96
2018-11-02T20:23:42.292Z,9.96
2018-11-02T20:26:10.517Z,10.13
2018-11-02T20:28:38.772Z,10.06
2018-11-02T20:31:06.992Z,10.09
2018-11-02T20:33:35.185Z,10.04
2018-11-02T20:36:03.383Z,10.14
2018-11-02T20:38:31.622Z,9.96
2018-11-02T20:40:59.907Z,10.02
2018-11-02T20:43:28.127Z,10.01
2018-11-02T20:45:56.345Z,10.02
2018-11-02T20:48:24.564Z,9.80
2018-11-02T20:50:52.796Z,9.78
2018-11-02T20:53:21.160Z,9.85
2018-11-02T20:55:49.395Z,9.79
2018-11-02T20:58:17.689Z,9.70
2018-11-02T21:00:45.902Z,9.68
2018-11-02T21:03:14.118Z,9.54
2018-11-02T21:05:42.441Z,9.52
2018-11-02T21:08:10.779Z,9.47
2018-11-02T21:10:38.830Z,9.32
2018-11-02T21:13:07.045Z,9.32
2018-11-02T21:15:35.193Z,9.39
2018-11-02T21:18:03.350Z,9.30
2018-11-02T21:20:31.612Z,9.23
2018-11-02T21:22:59.790Z,9.31
2018-11-02T21:25:27.977Z,9.29
2018-11-02T21:27:56.166Z,9.29
2018-11-02T21:30:25.536Z,9.20
2018-11-02T21:32:54.385Z,9.15
2018-11-02T21:35:23.111Z,9.18
2018-11-02T21:37:51.385Z,9.16
2018-11-02T21:40:20.855Z,9.11
2018-11-02T21:42:49.847Z,9.09
2018-11-02T21:45:19.377Z,9.31
2018-11-02T21:47:47.786Z,9.26
2018-11-02T21:50:16.474Z,9.36
2018-11-02T21:52:44.629Z,9.26
2018-11-02T21:55:13.193Z,9.26
2018-11-02T21:57:41.400Z,9.17
2018-11-02T22:00:11.922Z,8.96
2018-11-02T22:02:40.202Z,8.90
2018-11-02T22:05:09.599Z,8.91
2018-11-02T22:07:37.746Z,9.12
2018-11-02T22:10:07.227Z,9.09
2018-11-02T22:12:35.447Z,9.21
2018-11-02T22:15:03.724Z,9.31
2018-11-02T22:17:31.953Z,9.27
2018-11-02T22:20:00.181Z,9.35
2018-11-02T22:22:28.418Z,9.32
2018-11-02T22:24:56.734Z,9.37
2018-11-02T22:27:24.912Z,9.37
2018-11-02T22:29:53.079Z,9.57
2018-11-02T22:32:21.243Z,9.53
2018-11-02T22:34:49.406Z,9.53
2018-11-02T22:37:17.624Z,9.64
2018-11-02T22:39:45.875Z,9.75
2018-11-02T22:42:14.979Z,9.60
2018-11-02T22:44:43.257Z,9.64
2018-11-02T22:47:11.621Z,9.67
2018-11-02T22:49:39.753Z,9.66
2018-11-02T22:52:07.935Z,9.78
2018-11-02T22:54:36.077Z,9.90
2018-11-02T22:57:04.249Z,9.92
2018-11-02T22:59:32.387Z,9.90
2018-11-02T23:02:01.319Z,10.05
2018-11-02T23:04:29.583Z,10.01
2018-11-02T23:06:57.789Z,10.13
2018-11-02T23:09:25.983Z,10.19
2018-11-02T23:11:54.219Z,10.24
2018-11-02T23:14:22.370Z,10.16
2018-11-02T23:16:50.579Z,10.12
2018-11-02T23:19:18.855Z,10.17
2018-11-02T23:21:46.956Z,10.22
2018-11-02T23:24:15.378Z,10.20
2018-11-02T23:26:43.562Z,10.21
2018-11-02T23:29:11.747Z,10.21
2018-11-02T23:31:39.975Z,10.18
2018-11-02T23:34:08.209Z,10.11
2018-11-02T23:36:36.417Z,10.05
2018-11-02T23:39:06.110Z,10.05
2018-11-02T23:41:34.385Z,10.18
2018-11-02T23:44:02.561Z,10.18
2018-11-02T23:46:30.759Z,10.16
2018-11-02T23:48:58.918Z,10.21
2018-11-02T23:51:27.099Z,10.14
2018-11-02T23:53:55.415Z,10.14
2018-11-02T23:56:23.581Z,10.05
2018-11-02T23:58:51.770Z,9.95
